createdAt,value
2022-12-10T00:01:18.936Z,0.47
2022-12-10T00:03:46.715Z,-0.25
2022-12-10T00:06:16.751Z,-0.49
2022-12-10T00:08:44.047Z,-0.54
2022-12-10T00:11:12.891Z,-0.44
2022-12-10T00:13:40.808Z,-0.16
2022-12-10T00:16:10.626Z,0.16
2022-12-10T00:18:38.505Z,0.20
2022-12-10T00:21:11.428Z,0.40
2022-12-10T00:23:39.153Z,0.44
2022-12-10T00:26:08.714Z,0.50
2022-12-10T00:28:36.448Z,0.53
2022-12-10T00:31:08.731Z,0.48
2022-12-10T00:33:36.302Z,0.57
2022-12-10T00:36:09.835Z,0.62
2022-12-10T00:38:38.259Z,0.57
2022-12-10T00:41:05.881Z,0.59
2022-12-10T00:43:34.813Z,0.58
2022-12-10T00:46:02.843Z,0.53
2022-12-10T00:48:29.966Z,0.18
2022-12-10T00:51:02.301Z,0.22
2022-12-10T00:53:31.247Z,0.16
2022-12-10T00:55:59.000Z,0.29
2022-12-10T00:58:29.751Z,0.38
2022-12-10T01:01:11.469Z,-0.25
2022-12-10T01:03:39.357Z,-0.74
2022-12-10T01:06:14.445Z,-0.54
2022-12-10T01:08:43.172Z,-0.58
2022-12-10T01:11:11.488Z,-0.30
2022-12-10T01:13:39.625Z,-0.34
2022-12-10T01:16:09.199Z,-0.30
2022-12-10T01:18:36.792Z,-0.04
2022-12-10T01:21:13.080Z,0.22
2022-12-10T01:23:43.013Z,0.21
2022-12-10T01:26:13.703Z,-0.07
2022-12-10T01:28:43.980Z,-0.24
2022-12-10T01:31:36.432Z,-0.12
2022-12-10T01:34:07.537Z,-0.18
2022-12-10T01:36:40.443Z,-0.22
2022-12-10T01:39:09.999Z,-0.20
2022-12-10T01:41:45.945Z,-0.26
2022-12-10T01:44:12.857Z,-0.50
2022-12-10T01:46:44.968Z,-0.68
2022-12-10T01:49:18.475Z,-0.79
2022-12-10T01:51:50.239Z,-0.73
2022-12-10T01:54:25.975Z,-0.98
2022-12-10T01:57:00.083Z,-0.91
2022-12-10T01:59:28.968Z,-0.78
2022-12-10T02:02:23.948Z,-0.40
2022-12-10T02:05:09.058Z,-0.20
2022-12-10T02:07:45.132Z,-0.87
2022-12-10T02:10:58.672Z,-1.21
2022-12-10T02:13:40.413Z,-1.32
2022-12-10T02:16:31.158Z,-0.91
2022-12-10T02:19:29.456Z,-0.63
2022-12-10T02:21:59.908Z,-0.64
2022-12-10T02:24:34.218Z,-1.00
2022-12-10T02:27:19.325Z,-0.58
2022-12-10T02:29:49.110Z,-0.72
2022-12-10T02:32:22.303Z,-0.77
2022-12-10T02:34:53.982Z,-0.93
2022-12-10T02:37:34.431Z,-0.78
2022-12-10T02:40:07.659Z,-0.45
2022-12-10T02:42:44.043Z,-0.30
2022-12-10T02:45:12.415Z,-0.13
2022-12-10T02:47:41.963Z,0.08
2022-12-10T02:50:13.924Z,-0.05
2022-12-10T02:52:40.965Z,-0.26
2022-12-10T02:55:12.972Z,-0.17
2022-12-10T02:58:08.069Z,-0.10
2022-12-10T03:00:44.887Z,-0.19
2022-12-10T03:03:15.080Z,0.11
2022-12-10T03:05:53.365Z,-0.09
2022-12-10T03:08:28.100Z,-0.11
2022-12-10T03:11:04.116Z,0.06
2022-12-10T03:13:39.624Z,-0.13
2022-12-10T03:16:08.006Z,-0.27
2022-12-10T03:18:38.445Z,-0.50
2022-12-10T03:21:08.223Z,-0.38
2022-12-10T03:23:38.670Z,-0.08
2022-12-10T03:26:06.772Z,-0.31
2022-12-10T03:28:39.586Z,-0.54
2022-12-10T03:31:08.994Z,-0.55
2022-12-10T03:33:36.277Z,-0.51
2022-12-10T03:36:04.382Z,-0.47
2022-12-10T03:38:31.750Z,-0.19
2022-12-10T03:40:59.879Z,-0.14
2022-12-10T03:43:26.863Z,-0.05
2022-12-10T03:45:54.318Z,0.13
2022-12-10T03:48:27.291Z,0.21
2022-12-10T03:50:54.411Z,0.41
2022-12-10T03:53:21.567Z,0.46
2022-12-10T03:55:48.552Z,0.51
2022-12-10T03:58:20.168Z,0.04
2022-12-10T04:00:47.767Z,0.02
2022-12-10T04:03:14.727Z,-0.06
2022-12-10T04:05:41.663Z,0.10
2022-12-10T04:08:08.689Z,0.19
2022-12-10T04:10:39.499Z,0.28
2022-12-10T04:13:24.982Z,0.38
2022-12-10T04:16:10.748Z,0.48
2022-12-10T04:18:37.694Z,0.56
2022-12-10T04:21:24.764Z,0.56
2022-12-10T04:24:10.890Z,0.62
2022-12-10T04:26:53.196Z,0.66
2022-12-10T04:29:25.755Z,0.25
2022-12-10T04:31:53.093Z,0.18
2022-12-10T04:34:20.708Z,0.29
2022-12-10T04:36:49.034Z,0.50
2022-12-10T04:39:16.287Z,0.61
2022-12-10T04:41:47.161Z,0.73
2022-12-10T04:44:14.670Z,0.74
2022-12-10T04:46:42.053Z,0.79
2022-12-10T04:49:09.316Z,0.70
2022-12-10T04:51:36.421Z,0.64
2022-12-10T04:54:03.995Z,0.69
2022-12-10T04:56:31.347Z,0.72
2022-12-10T04:58:59.306Z,0.50
2022-12-10T05:01:27.203Z,0.43
2022-12-10T05:03:54.456Z,0.56
2022-12-10T05:06:22.119Z,0.36
2022-12-10T05:08:49.190Z,0.15
2022-12-10T05:11:21.735Z,0.16
2022-12-10T05:13:48.804Z,0.09
2022-12-10T05:16:17.991Z,-0.32
2022-12-10T05:18:45.589Z,-0.16
2022-12-10T05:21:17.504Z,0.11
2022-12-10T05:23:51.024Z,0.43
2022-12-10T05:26:23.361Z,0.33
2022-12-10T05:28:55.347Z,0.15
2022-12-10T05:31:24.751Z,0.20
2022-12-10T05:33:53.240Z,0.44
2022-12-10T05:36:23.864Z,0.61
2022-12-10T05:38:52.049Z,0.52
2022-12-10T05:41:30.716Z,0.25
2022-12-10T05:43:59.234Z,0.19
2022-12-10T05:46:30.322Z,0.09
2022-12-10T05:48:57.938Z,-0.05
2022-12-10T05:51:28.053Z,0.20
2022-12-10T05:53:55.964Z,0.08
2022-12-10T05:56:24.564Z,0.23
2022-12-10T05:58:56.304Z,0.03
2022-12-10T06:01:26.237Z,-0.21
2022-12-10T06:03:53.717Z,-0.19
2022-12-10T06:06:26.602Z,-0.44
2022-12-10T06:08:53.895Z,-0.33
2022-12-10T06:11:20.955Z,-0.52
2022-12-10T06:13:53.096Z,-0.44
2022-12-10T06:16:23.988Z,-0.26
2022-12-10T06:18:51.669Z,-0.43
2022-12-10T06:21:19.773Z,-0.11
2022-12-10T06:23:47.658Z,0.07
2022-12-10T06:26:18.437Z,0.22
2022-12-10T06:28:46.808Z,0.38
2022-12-10T06:31:14.382Z,0.33
2022-12-10T06:33:42.266Z,0.40
2022-12-10T06:36:11.437Z,0.49
2022-12-10T06:38:39.149Z,0.20
2022-12-10T06:41:08.341Z,-0.09
2022-12-10T06:43:35.543Z,-0.25
2022-12-10T06:46:14.432Z,-0.25
2022-12-10T06:48:42.039Z,-0.16
2022-12-10T06:51:10.106Z,0.23
2022-12-10T06:53:38.644Z,0.15
2022-12-10T06:56:07.794Z,0.14
2022-12-10T06:58:35.953Z,0.03
2022-12-10T07:01:08.298Z,0.09
2022-12-10T07:03:35.987Z,0.19
2022-12-10T07:06:04.333Z,0.30
2022-12-10T07:08:31.474Z,0.29
2022-12-10T07:10:58.947Z,0.59
2022-12-10T07:13:30.337Z,0.69
2022-12-10T07:15:58.678Z,0.64
2022-12-10T07:18:26.244Z,0.58
2022-12-10T07:20:53.235Z,0.40
2022-12-10T07:23:21.077Z,0.09
2022-12-10T07:25:48.260Z,0.05
2022-12-10T07:28:15.401Z,-0.20
2022-12-10T07:30:42.384Z,-0.21
2022-12-10T07:33:09.419Z,-0.15
2022-12-10T07:35:43.382Z,0.22
2022-12-10T07:38:14.418Z,0.25
2022-12-10T07:40:41.391Z,0.29
2022-12-10T07:43:08.391Z,0.38
2022-12-10T07:45:35.397Z,0.20
2022-12-10T07:48:02.540Z,0.33
2022-12-10T07:50:29.882Z,0.24
2022-12-10T07:52:57.296Z,0.19
2022-12-10T07:55:24.268Z,0.02
2022-12-10T07:57:51.261Z,-0.22
2022-12-10T08:00:18.548Z,-0.20
2022-12-10T08:02:45.545Z,-0.04
2022-12-10T08:05:12.639Z,0.23
2022-12-10T08:07:39.901Z,0.51
2022-12-10T08:10:07.532Z,0.52
2022-12-10T08:12:34.862Z,0.40
2022-12-10T08:15:03.618Z,0.23
2022-12-10T08:17:30.863Z,0.29
2022-12-10T08:19:58.100Z,0.24
2022-12-10T08:22:25.083Z,0.16
2022-12-10T08:24:52.017Z,0.04
2022-12-10T08:27:19.016Z,-0.05
2022-12-10T08:29:46.026Z,-0.08
2022-12-10T08:32:13.045Z,0.09
2022-12-10T08:34:40.166Z,0.51
2022-12-10T08:37:12.060Z,0.77
2022-12-10T08:39:39.590Z,1.01
2022-12-10T08:42:06.616Z,0.83
2022-12-10T08:44:33.603Z,0.87
2022-12-10T08:47:00.657Z,0.99
2022-12-10T08:49:27.625Z,0.95
2022-12-10T08:51:54.571Z,0.92
2022-12-10T08:54:21.632Z,0.80
2022-12-10T08:56:48.658Z,0.61
2022-12-10T08:59:15.717Z,0.89
2022-12-10T09:01:42.720Z,0.87
2022-12-10T09:04:10.539Z,0.78
2022-12-10T09:06:37.523Z,0.83
2022-12-10T09:09:04.595Z,0.63
2022-12-10T09:11:34.702Z,0.72
2022-12-10T09:14:02.329Z,0.74
2022-12-10T09:16:35.350Z,0.93
2022-12-10T09:19:03.945Z,0.91
2022-12-10T09:21:33.929Z,0.82
2022-12-10T09:24:01.172Z,0.81
2022-12-10T09:26:28.572Z,0.63
2022-12-10T09:28:55.909Z,0.48
2022-12-10T09:31:22.973Z,0.62
2022-12-10T09:33:52.076Z,0.59
2022-12-10T09:36:19.319Z,0.46
2022-12-10T09:38:47.361Z,0.14
2022-12-10T09:41:32.289Z,0.08
2022-12-10T09:44:30.641Z,0.12
2022-12-10T09:47:02.672Z,-0.04
2022-12-10T09:50:17.628Z,-0.26
2022-12-10T09:52:48.694Z,-0.54
2022-12-10T09:55:17.550Z,-0.15
2022-12-10T09:57:51.236Z,-0.38
2022-12-10T10:00:56.909Z,-0.05
2022-12-10T10:03:24.304Z,-0.11
2022-12-10T10:05:54.965Z,-0.18
2022-12-10T10:08:32.475Z,-0.03
2022-12-10T10:11:01.256Z,-0.06
2022-12-10T10:13:28.200Z,-0.04
2022-12-10T10:15:55.936Z,-0.47
2022-12-10T10:18:46.204Z,-0.38
2022-12-10T10:21:24.105Z,-0.26
2022-12-10T10:23:52.367Z,-0.24
2022-12-10T10:26:19.650Z,-0.17
2022-12-10T10:28:47.335Z,-0.03
2022-12-10T10:31:25.013Z,0.12
2022-12-10T10:33:58.215Z,0.05
2022-12-10T10:36:31.511Z,0.06
2022-12-10T10:39:09.197Z,0.23
2022-12-10T10:41:40.919Z,0.45
2022-12-10T10:44:19.815Z,0.21
2022-12-10T10:46:51.138Z,0.31
2022-12-10T10:49:29.848Z,0.45
2022-12-10T10:52:21.471Z,0.25
2022-12-10T10:54:49.643Z,0.46
2022-12-10T10:57:25.561Z,0.43
2022-12-10T11:00:08.913Z,0.34
2022-12-10T11:02:38.873Z,-0.03
2022-12-10T11:05:09.731Z,-0.13
2022-12-10T11:07:41.512Z,-0.23
2022-12-10T11:10:22.432Z,-0.10
2022-12-10T11:13:05.591Z,-0.28
2022-12-10T11:15:32.769Z,-0.38
2022-12-10T11:18:00.518Z,-0.63
2022-12-10T11:20:41.626Z,-0.41
2022-12-10T11:23:11.707Z,-0.35
2022-12-10T11:25:50.318Z,0.03
2022-12-10T11:28:34.580Z,0.33
2022-12-10T11:31:05.271Z,0.11
2022-12-10T11:33:42.543Z,0.26
2022-12-10T11:36:38.880Z,0.22
2022-12-10T11:39:36.359Z,0.15
2022-12-10T11:42:16.904Z,-0.01
2022-12-10T11:45:02.299Z,-0.42
2022-12-10T11:47:30.750Z,-0.20
2022-12-10T11:50:22.255Z,0.00
2022-12-10T11:53:24.501Z,0.03
2022-12-10T11:55:57.079Z,0.00
2022-12-10T11:58:50.326Z,-0.28
2022-12-10T12:01:17.273Z,-0.14
2022-12-10T12:03:44.419Z,-0.25
2022-12-10T12:06:29.853Z,-0.28
2022-12-10T12:09:19.443Z,-0.22
2022-12-10T12:12:12.339Z,-0.17
2022-12-10T12:14:49.813Z,-0.12
2022-12-10T12:17:20.042Z,0.07
2022-12-10T12:20:01.707Z,0.07
2022-12-10T12:22:38.262Z,-0.04
2022-12-10T12:25:21.633Z,0.25
2022-12-10T12:27:56.890Z,0.30
2022-12-10T12:30:24.329Z,-0.08
2022-12-10T12:33:10.395Z,-0.19
2022-12-10T12:35:46.061Z,-0.19
2022-12-10T12:38:32.934Z,-0.11
2022-12-10T12:41:27.915Z,0.07
2022-12-10T12:44:30.889Z,-0.08
2022-12-10T12:47:05.704Z,-0.05
2022-12-10T12:49:39.174Z,-0.10
2022-12-10T12:52:24.413Z,0.01
2022-12-10T12:54:51.794Z,0.15
2022-12-10T12:57:25.475Z,0.09
2022-12-10T13:00:19.249Z,0.23
2022-12-10T13:03:21.768Z,0.60
2022-12-10T13:05:48.897Z,0.33
2022-12-10T13:08:18.994Z,0.40
2022-12-10T13:11:11.904Z,0.43
2022-12-10T13:13:40.059Z,0.42
2022-12-10T13:16:47.380Z,0.50
2022-12-10T13:19:20.370Z,0.46
2022-12-10T13:21:53.333Z,0.31
2022-12-10T13:24:41.350Z,0.25
2022-12-10T13:27:32.524Z,0.13
2022-12-10T13:30:13.204Z,0.24
2022-12-10T13:32:40.201Z,0.31
2022-12-10T13:35:09.957Z,0.30
2022-12-10T13:37:57.038Z,0.24
2022-12-10T13:40:51.434Z,0.25
2022-12-10T13:43:57.499Z,0.53
2022-12-10T13:46:32.613Z,0.50
2022-12-10T13:49:03.347Z,0.51
2022-12-10T13:52:08.360Z,0.46
2022-12-10T13:55:21.293Z,0.45
2022-12-10T13:58:36.516Z,0.44
2022-12-10T14:01:14.724Z,0.25
2022-12-10T14:03:56.873Z,0.05
2022-12-10T14:06:25.556Z,0.29
2022-12-10T14:08:55.174Z,0.53
2022-12-10T14:11:26.653Z,0.62
2022-12-10T14:13:59.028Z,0.62
2022-12-10T14:16:30.095Z,0.75
2022-12-10T14:19:01.999Z,0.78
2022-12-10T14:21:37.696Z,0.94
2022-12-10T14:24:04.991Z,1.08
2022-12-10T14:26:37.919Z,0.94
2022-12-10T14:29:07.786Z,0.93
2022-12-10T14:31:40.135Z,0.94
2022-12-10T14:34:09.659Z,0.82
2022-12-10T14:36:45.685Z,0.73
2022-12-10T14:39:27.248Z,0.68
2022-12-10T14:41:58.371Z,0.67
2022-12-10T14:44:26.596Z,0.66
2022-12-10T14:47:05.001Z,0.69
2022-12-10T14:49:32.126Z,0.68
2022-12-10T14:52:01.384Z,0.58
2022-12-10T14:54:35.447Z,0.62
2022-12-10T14:57:08.336Z,0.60
2022-12-10T15:00:01.534Z,0.45
2022-12-10T15:02:32.641Z,0.59
2022-12-10T15:05:00.409Z,0.61
2022-12-10T15:07:35.989Z,0.46
2022-12-10T15:10:11.794Z,0.37
2022-12-10T15:12:51.223Z,0.45
2022-12-10T15:15:29.634Z,0.65
2022-12-10T15:18:05.363Z,0.65
2022-12-10T15:20:37.360Z,0.68
2022-12-10T15:23:19.725Z,0.62
2022-12-10T15:25:59.137Z,0.45
2022-12-10T15:28:29.921Z,0.42
2022-12-10T15:30:59.684Z,0.35
2022-12-10T15:33:34.520Z,0.33
2022-12-10T15:36:02.413Z,0.31
2022-12-10T15:38:30.292Z,0.43
2022-12-10T15:41:21.111Z,0.45
2022-12-10T15:43:58.158Z,0.48
2022-12-10T15:46:25.177Z,0.30
2022-12-10T15:48:52.290Z,0.26
2022-12-10T15:51:19.844Z,0.30
2022-12-10T15:53:47.249Z,0.43
2022-12-10T15:56:14.244Z,0.40
2022-12-10T15:58:42.659Z,0.53
2022-12-10T16:01:15.117Z,0.50
2022-12-10T16:03:42.803Z,0.43
2022-12-10T16:06:09.884Z,0.32
2022-12-10T16:08:37.563Z,0.31
2022-12-10T16:11:18.365Z,0.24
2022-12-10T16:13:51.629Z,0.22
2022-12-10T16:16:18.963Z,0.30
2022-12-10T16:18:46.102Z,0.41
2022-12-10T16:21:13.267Z,0.31
2022-12-10T16:23:40.577Z,0.34
2022-12-10T16:26:15.469Z,0.36
2022-12-10T16:28:43.615Z,0.31
2022-12-10T16:31:14.917Z,0.45
2022-12-10T16:33:43.622Z,0.27
2022-12-10T16:36:12.510Z,0.45
2022-12-10T16:38:40.767Z,0.69
2022-12-10T16:41:23.573Z,0.64
2022-12-10T16:43:50.942Z,0.37
2022-12-10T16:46:18.033Z,0.54
2022-12-10T16:48:45.333Z,0.38
2022-12-10T16:51:31.118Z,0.53
2022-12-10T16:53:58.891Z,0.71
2022-12-10T16:56:25.976Z,0.52
2022-12-10T16:58:53.102Z,0.51
2022-12-10T17:01:23.268Z,0.51
2022-12-10T17:03:51.855Z,0.51
2022-12-10T17:06:20.082Z,0.49
2022-12-10T17:08:47.670Z,0.67
2022-12-10T17:11:43.261Z,0.71
2022-12-10T17:14:23.135Z,0.52
2022-12-10T17:16:51.993Z,0.44
2022-12-10T17:19:19.316Z,0.40
2022-12-10T17:21:46.902Z,0.49
2022-12-10T17:24:13.952Z,0.48
2022-12-10T17:26:45.169Z,0.36
2022-12-10T17:29:14.521Z,0.42
2022-12-10T17:31:41.779Z,0.47
2022-12-10T17:34:27.375Z,0.25
2022-12-10T17:36:54.989Z,0.52
2022-12-10T17:39:25.892Z,0.58
2022-12-10T17:41:54.357Z,0.59
2022-12-10T17:44:23.099Z,0.58
2022-12-10T17:46:50.260Z,0.57
2022-12-10T17:49:17.460Z,0.62
2022-12-10T17:51:44.900Z,0.53
2022-12-10T17:54:12.345Z,0.55
2022-12-10T17:56:40.649Z,0.67
2022-12-10T17:59:07.769Z,0.67
2022-12-10T18:01:34.947Z,0.55
2022-12-10T18:04:02.125Z,0.47
2022-12-10T18:06:30.582Z,0.42
2022-12-10T18:09:00.897Z,0.49
2022-12-10T18:11:33.226Z,0.50
2022-12-10T18:14:00.248Z,0.62
2022-12-10T18:16:32.308Z,0.63
2022-12-10T18:19:02.285Z,0.69
2022-12-10T18:21:30.250Z,0.73
2022-12-10T18:23:57.245Z,0.85
2022-12-10T18:26:27.387Z,1.09
2022-12-10T18:29:00.382Z,1.03
2022-12-10T18:31:33.183Z,0.88
2022-12-10T18:34:03.635Z,0.72
2022-12-10T18:36:33.965Z,0.87
2022-12-10T18:39:04.763Z,0.60
2022-12-10T18:41:33.413Z,0.75
2022-12-10T18:44:00.424Z,0.72
2022-12-10T18:46:29.477Z,0.56
2022-12-10T18:48:57.008Z,0.38
2022-12-10T18:51:24.870Z,0.59
2022-12-10T18:53:52.253Z,0.45
2022-12-10T18:56:23.564Z,0.75
2022-12-10T18:58:51.787Z,0.68
2022-12-10T19:01:25.261Z,0.50
2022-12-10T19:03:56.650Z,0.43
2022-12-10T19:06:26.708Z,0.49
2022-12-10T19:09:18.229Z,0.56
2022-12-10T19:11:54.221Z,0.54
2022-12-10T19:14:23.902Z,0.56
2022-12-10T19:16:54.322Z,0.75
2022-12-10T19:19:24.269Z,0.75
2022-12-10T19:21:54.202Z,0.94
2022-12-10T19:24:22.210Z,0.88
2022-12-10T19:26:49.324Z,0.87
2022-12-10T19:29:21.707Z,0.82
2022-12-10T19:31:50.945Z,0.89
2022-12-10T19:34:20.016Z,0.81
2022-12-10T19:36:49.887Z,0.75
2022-12-10T19:39:23.343Z,0.83
2022-12-10T19:41:51.976Z,0.86
2022-12-10T19:44:19.297Z,0.86
2022-12-10T19:46:46.532Z,0.84
2022-12-10T19:49:15.584Z,0.95
2022-12-10T19:51:43.207Z,1.00
2022-12-10T19:54:11.119Z,0.95
2022-12-10T19:56:38.200Z,1.11
2022-12-10T19:59:15.123Z,0.97
2022-12-10T20:01:43.541Z,0.97
2022-12-10T20:04:10.766Z,0.82
2022-12-10T20:06:41.345Z,0.87
2022-12-10T20:09:24.494Z,1.03
2022-12-10T20:11:54.299Z,0.83
2022-12-10T20:14:23.200Z,0.87
2022-12-10T20:16:52.123Z,0.91
2022-12-10T20:19:21.617Z,0.99
2022-12-10T20:21:48.623Z,1.09
2022-12-10T20:24:15.857Z,1.07
2022-12-10T20:26:46.416Z,0.94
2022-12-10T20:29:25.680Z,0.97
2022-12-10T20:31:55.351Z,1.09
2022-12-10T20:34:23.444Z,1.00
2022-12-10T20:36:51.371Z,0.98
2022-12-10T20:39:30.648Z,1.11
2022-12-10T20:41:59.356Z,1.11
2022-12-10T20:44:27.891Z,1.31
2022-12-10T20:46:55.863Z,1.25
2022-12-10T20:49:24.666Z,1.06
2022-12-10T20:51:51.748Z,1.27
2022-12-10T20:54:18.980Z,1.27
2022-12-10T20:56:45.983Z,1.20
2022-12-10T20:59:15.214Z,1.12
2022-12-10T21:01:42.664Z,1.21
2022-12-10T21:04:09.975Z,1.28
2022-12-10T21:06:36.983Z,1.33
2022-12-10T21:09:04.428Z,1.40
2022-12-10T21:11:31.427Z,1.20
2022-12-10T21:13:58.439Z,1.35
2022-12-10T21:16:26.253Z,1.41
2022-12-10T21:18:54.343Z,1.37
2022-12-10T21:21:23.255Z,1.58
2022-12-10T21:23:50.403Z,1.52
2022-12-10T21:26:17.419Z,1.55
2022-12-10T21:28:45.154Z,1.73
2022-12-10T21:31:24.460Z,1.92
2022-12-10T21:33:52.512Z,1.93
2022-12-10T21:36:21.423Z,2.14
2022-12-10T21:38:48.852Z,2.09
2022-12-10T21:41:40.906Z,2.13
2022-12-10T21:44:08.196Z,2.30
2022-12-10T21:46:36.066Z,1.74
2022-12-10T21:49:03.979Z,1.81
2022-12-10T21:51:36.390Z,2.04
2022-12-10T21:54:07.249Z,1.87
2022-12-10T21:56:34.292Z,1.76
2022-12-10T21:59:01.589Z,1.90
2022-12-10T22:01:29.018Z,2.03
2022-12-10T22:03:56.041Z,1.91
2022-12-10T22:06:26.933Z,1.88
2022-12-10T22:08:53.915Z,2.06
2022-12-10T22:11:21.030Z,1.85
2022-12-10T22:13:48.053Z,1.82
2022-12-10T22:16:15.148Z,1.81
2022-12-10T22:18:42.255Z,1.85
2022-12-10T22:21:09.361Z,1.80
2022-12-10T22:23:36.332Z,1.59
2022-12-10T22:26:09.106Z,1.63
2022-12-10T22:28:36.588Z,1.74
2022-12-10T22:31:08.798Z,1.70
2022-12-10T22:33:38.760Z,1.63
2022-12-10T22:36:07.120Z,1.58
2022-12-10T22:38:35.489Z,1.63
2022-12-10T22:41:03.824Z,1.63
2022-12-10T22:46:21.546Z,1.78
2022-12-10T22:48:48.784Z,1.70
2022-12-10T22:51:16.266Z,1.68
2022-12-10T22:53:43.283Z,1.75
2022-12-10T22:56:12.767Z,1.87
2022-12-10T22:58:39.823Z,1.90
2022-12-10T23:01:06.892Z,1.83
2022-12-10T23:03:33.932Z,1.82
2022-12-10T23:06:01.632Z,1.82
2022-12-10T23:08:31.353Z,1.83
2022-12-10T23:10:58.664Z,1.76
2022-12-10T23:13:25.701Z,1.95
2022-12-10T23:15:54.299Z,2.11
2022-12-10T23:18:22.276Z,2.09
2022-12-10T23:20:50.701Z,2.01
2022-12-10T23:23:19.512Z,1.93
2022-12-10T23:25:47.235Z,1.93
2022-12-10T23:28:15.207Z,2.14
2022-12-10T23:30:42.876Z,2.27
2022-12-10T23:33:10.215Z,2.13
2022-12-10T23:35:42.324Z,2.12
2022-12-10T23:38:09.758Z,2.13
2022-12-10T23:40:40.474Z,2.20
2022-12-10T23:43:07.542Z,2.08
2022-12-10T23:45:34.799Z,2.01
2022-12-10T23:48:02.180Z,1.98
2022-12-10T23:50:32.998Z,2.25
2022-12-10T23:53:01.256Z,2.42
2022-12-10T23:55:28.961Z,2.42
2022-12-10T23:57:56.385Z,2.38
